Time;durP1;ratioP1;P1;durP2;ratioP2;P2;SDS_P1;SDS_P2;PMS_P1;PMS_P2;Temp;Humidity;BMP_temperature;BMP_pressure;BME280_temperature;BME280_humidity;BME280_pressure;Samples;Min_cycle;Max_cycle;Signal;HPM_P1;HPM_P2
2021/10/16 00:02:20;;;;;;;337.55;75.93;;;;;;;;;;5052743;28;20025;-69
2021/10/16 00:04:46;;;;;;;114.82;33.97;;;;;;;;;;5049314;28;20096;-69
2021/10/16 00:07:12;;;;;;;46.42;16.92;;;;;;;;;;5049112;28;20388;-69
2021/10/16 00:09:38;;;;;;;44.03;16.52;;;;;;;;;;5049301;28;20032;-65
2021/10/16 00:12:04;;;;;;;62.35;22.42;;;;;;;;;;5049502;28;20394;-65
2021/10/16 00:14:30;;;;;;;74.63;25.95;;;;;;;;;;5051310;28;20024;-66
2021/10/16 00:16:56;;;;;;;68.20;22.73;;;;;;;;;;5050540;28;20029;-65
2021/10/16 00:19:22;;;;;;;59.08;22.13;;;;;;;;;;5048914;28;20025;-65
2021/10/16 00:21:48;;;;;;;93.30;26.60;;;;;;;;;;5048702;28;20021;-66
2021/10/16 00:24:14;;;;;;;84.45;26.98;;;;;;;;;;5048900;28;20108;-66
2021/10/16 00:26:40;;;;;;;65.55;21.15;;;;;;;;;;5050209;28;20473;-65
2021/10/16 00:29:06;;;;;;;48.35;16.88;;;;;;;;;;5050990;28;20063;-66
2021/10/16 00:31:32;;;;;;;46.72;16.88;;;;;;;;;;5048820;28;20045;-65
2021/10/16 00:33:58;;;;;;;32.90;13.68;;;;;;;;;;5049651;28;20338;-65
2021/10/16 00:36:24;;;;;;;34.58;14.25;;;;;;;;;;5048985;28;20104;-65
2021/10/16 00:38:50;;;;;;;39.00;15.80;;;;;;;;;;5048299;28;20381;-65
2021/10/16 00:41:17;;;;;;;56.05;19.10;;;;;;;;;;5052425;28;20090;-65
2021/10/16 00:43:43;;;;;;;50.13;17.48;;;;;;;;;;5048529;28;20029;-65
2021/10/16 00:46:09;;;;;;;42.83;15.38;;;;;;;;;;5048471;28;20037;-65
2021/10/16 00:48:35;;;;;;;49.85;17.05;;;;;;;;;;5048102;28;20032;-65
2021/10/16 00:51:01;;;;;;;36.72;14.55;;;;;;;;;;5048356;28;20045;-65
2021/10/16 00:53:27;;;;;;;33.80;13.30;;;;;;;;;;5051124;28;20115;-65
2021/10/16 00:55:53;;;;;;;32.63;12.32;;;;;;;;;;5049409;28;20122;-65
2021/10/16 00:58:20;;;;;;;42.25;14.90;;;;;;;;;;5048396;28;20112;-65
2021/10/16 01:00:46;;;;;;;30.30;13.90;;;;;;;;;;5047949;28;20056;-65
2021/10/16 01:03:12;;;;;;;30.85;13.27;;;;;;;;;;5048408;28;20043;-66
2021/10/16 01:05:38;;;;;;;30.00;12.75;;;;;;;;;;5049231;28;20469;-65
2021/10/16 01:08:05;;;;;;;25.65;12.77;;;;;;;;;;5049302;28;20394;-65
2021/10/16 01:10:31;;;;;;;28.85;12.57;;;;;;;;;;5048125;28;20043;-65
2021/10/16 01:12:58;;;;;;;29.30;12.48;;;;;;;;;;5048459;28;20376;-65
2021/10/16 01:15:25;;;;;;;80.32;25.45;;;;;;;;;;5046471;28;20043;-65
2021/10/16 01:17:52;;;;;;;46.63;17.20;;;;;;;;;;5047976;28;20021;-65
2021/10/16 01:20:19;;;;;;;39.05;15.30;;;;;;;;;;5051613;28;20032;-65
2021/10/16 01:22:46;;;;;;;37.33;14.70;;;;;;;;;;5050097;28;20083;-65
2021/10/16 01:25:22;;;;;;;35.60;14.30;;;;;;;;;;5047342;28;20049;-65
2021/10/16 01:27:49;;;;;;;27.98;12.35;;;;;;;;;;5047382;28;20215;-65
2021/10/16 01:30:16;;;;;;;25.58;11.48;;;;;;;;;;5046262;28;20392;-66
2021/10/16 01:32:42;;;;;;;23.90;9.90;;;;;;;;;;5046990;28;20033;-65
2021/10/16 01:35:09;;;;;;;37.45;14.35;;;;;;;;;;5050695;28;20028;-65
2021/10/16 01:37:38;;;;;;;42.97;16.05;;;;;;;;;;5047967;28;20476;-65
2021/10/16 01:40:04;;;;;;;44.03;16.25;;;;;;;;;;5047093;28;20039;-65
2021/10/16 01:42:30;;;;;;;56.50;19.08;;;;;;;;;;5047357;28;20036;-65
2021/10/16 01:44:56;;;;;;;44.30;16.13;;;;;;;;;;5049053;28;20036;-65
2021/10/16 01:47:22;;;;;;;42.78;15.27;;;;;;;;;;5049547;28;20116;-65
2021/10/16 01:49:48;;;;;;;42.00;14.32;;;;;;;;;;5047979;28;20036;-65
2021/10/16 01:52:14;;;;;;;34.80;12.52;;;;;;;;;;5047402;28;20507;-65
2021/10/16 01:54:40;;;;;;;24.15;10.07;;;;;;;;;;5047610;28;20025;-65
2021/10/16 01:57:06;;;;;;;24.23;9.00;;;;;;;;;;5047617;28;20031;-65
2021/10/16 01:59:34;;;;;;;20.25;8.52;;;;;;;;;;5049587;28;20498;-65
2021/10/16 02:02:01;;;;;;;23.27;9.77;;;;;;;;;;5049392;28;20021;-65
2021/10/16 02:04:27;;;;;;;164.90;41.90;;;;;;;;;;5046889;28;20043;-66
2021/10/16 02:06:53;;;;;;;108.53;34.05;;;;;;;;;;5047560;28;20029;-65
2021/10/16 02:09:19;;;;;;;78.35;25.85;;;;;;;;;;5047008;28;20028;-65
2021/10/16 02:11:45;;;;;;;97.88;32.72;;;;;;;;;;5048231;28;20041;-65
2021/10/16 02:14:11;;;;;;;108.88;35.25;;;;;;;;;;5050364;28;20503;-65
2021/10/16 02:16:37;;;;;;;81.10;30.15;;;;;;;;;;5047025;28;20033;-65
2021/10/16 02:19:04;;;;;;;40.05;17.63;;;;;;;;;;5047032;28;20113;-65
2021/10/16 02:21:30;;;;;;;38.45;16.13;;;;;;;;;;5047262;28;20100;-66
2021/10/16 02:23:56;;;;;;;38.42;13.57;;;;;;;;;;5047541;28;20080;-66
2021/10/16 02:26:22;;;;;;;34.03;14.43;;;;;;;;;;5050011;28;20033;-65
2021/10/16 02:28:48;;;;;;;36.30;15.65;;;;;;;;;;5047554;28;20216;-65
2021/10/16 02:31:14;;;;;;;32.17;12.07;;;;;;;;;;5048376;28;20057;-66
2021/10/16 02:33:40;;;;;;;25.48;10.75;;;;;;;;;;5047149;28;20032;-65
2021/10/16 02:36:06;;;;;;;22.55;9.63;;;;;;;;;;5047161;28;20038;-65
2021/10/16 02:38:32;;;;;;;32.97;13.02;;;;;;;;;;5057193;28;20409;-65
2021/10/16 02:40:58;;;;;;;34.95;12.82;;;;;;;;;;5048493;28;20033;-65
2021/10/16 02:43:24;;;;;;;28.63;11.73;;;;;;;;;;5047028;28;20453;-65
2021/10/16 02:45:50;;;;;;;32.30;13.07;;;;;;;;;;5050365;28;20025;-65
2021/10/16 02:48:16;;;;;;;46.50;15.73;;;;;;;;;;5050602;28;20029;-65
2021/10/16 02:50:42;;;;;;;47.03;15.80;;;;;;;;;;5051741;28;20045;-65
2021/10/16 02:53:08;;;;;;;38.58;13.95;;;;;;;;;;5053401;28;20542;-65
2021/10/16 02:55:34;;;;;;;30.80;12.10;;;;;;;;;;5050822;28;20032;-65
2021/10/16 02:58:00;;;;;;;30.88;11.55;;;;;;;;;;5050265;28;20029;-65
2021/10/16 03:00:26;;;;;;;26.85;10.52;;;;;;;;;;5050146;28;20036;-65
2021/10/16 03:02:52;;;;;;;24.70;9.40;;;;;;;;;;5050497;28;20060;-65
2021/10/16 03:05:18;;;;;;;28.40;11.25;;;;;;;;;;5054401;28;20029;-66
2021/10/16 03:07:44;;;;;;;24.95;9.85;;;;;;;;;;5050332;28;20413;-65
2021/10/16 03:10:10;;;;;;;25.55;10.93;;;;;;;;;;5051736;28;20028;-65
2021/10/16 03:12:36;;;;;;;26.85;10.02;;;;;;;;;;5050041;28;20028;-65
2021/10/16 03:15:03;;;;;;;20.17;10.13;;;;;;;;;;5050647;28;20524;-65
2021/10/16 03:17:28;;;;;;;18.88;8.38;;;;;;;;;;5052663;28;20033;-65
2021/10/16 03:19:54;;;;;;;28.80;10.82;;;;;;;;;;5051393;28;20439;-65
2021/10/16 03:22:20;;;;;;;19.60;9.98;;;;;;;;;;5049680;28;20021;-66
2021/10/16 03:24:46;;;;;;;24.30;9.30;;;;;;;;;;5050128;28;20025;-65
2021/10/16 03:27:12;;;;;;;23.02;9.43;;;;;;;;;;5050165;28;20018;-65
2021/10/16 03:29:38;;;;;;;21.13;9.45;;;;;;;;;;5051930;28;20111;-66
2021/10/16 03:32:04;;;;;;;21.08;8.73;;;;;;;;;;5051318;28;20056;-65
2021/10/16 03:34:30;;;;;;;23.30;8.75;;;;;;;;;;5049912;28;20017;-65
2021/10/16 03:36:57;;;;;;;20.70;9.40;;;;;;;;;;5054283;28;20515;-66
2021/10/16 03:39:23;;;;;;;22.35;8.77;;;;;;;;;;5054537;28;20116;-65
2021/10/16 03:41:49;;;;;;;19.20;8.68;;;;;;;;;;5049768;28;20434;-65
2021/10/16 03:44:15;;;;;;;22.02;9.75;;;;;;;;;;5052737;28;20534;-66
2021/10/16 03:46:41;;;;;;;17.33;7.80;;;;;;;;;;5049911;28;20029;-66
2021/10/16 03:49:07;;;;;;;24.38;10.70;;;;;;;;;;5051412;28;20396;-66
2021/10/16 03:51:33;;;;;;;20.75;9.23;;;;;;;;;;5049150;28;20033;-66
2021/10/16 03:53:59;;;;;;;19.85;8.65;;;;;;;;;;5049772;28;20039;-66
2021/10/16 03:56:25;;;;;;;18.65;8.25;;;;;;;;;;5051443;28;20091;-66
2021/10/16 03:58:51;;;;;;;16.00;8.40;;;;;;;;;;5050248;28;20029;-66
2021/10/16 04:01:17;;;;;;;20.30;8.45;;;;;;;;;;5049386;28;20029;-66
2021/10/16 04:03:43;;;;;;;23.13;8.13;;;;;;;;;;5049152;28;20358;-66
2021/10/16 04:06:09;;;;;;;17.90;8.05;;;;;;;;;;5049527;28;20056;-66
2021/10/16 04:08:35;;;;;;;17.98;8.23;;;;;;;;;;5051474;28;20459;-66
2021/10/16 04:11:01;;;;;;;20.92;8.85;;;;;;;;;;5049790;28;20037;-66
2021/10/16 04:13:27;;;;;;;16.45;7.45;;;;;;;;;;5049410;28;20036;-65
2021/10/16 04:15:53;;;;;;;17.13;7.97;;;;;;;;;;5049315;28;20029;-66
2021/10/16 04:18:18;;;;;;;16.67;7.82;;;;;;;;;;5049376;28;20132;-66
2021/10/16 04:20:44;;;;;;;16.05;8.10;;;;;;;;;;5050002;28;20040;-66
2021/10/16 04:23:10;;;;;;;17.20;8.32;;;;;;;;;;5051561;28;20111;-66
2021/10/16 04:25:36;;;;;;;18.88;7.85;;;;;;;;;;5048478;28;20094;-66
2021/10/16 04:28:02;;;;;;;12.82;6.88;;;;;;;;;;5050719;28;20044;-66
2021/10/16 04:30:28;;;;;;;17.50;7.70;;;;;;;;;;5049016;28;20127;-66
2021/10/16 04:32:55;;;;;;;12.85;6.85;;;;;;;;;;5048862;28;20120;-66
2021/10/16 04:35:21;;;;;;;13.38;6.72;;;;;;;;;;5052017;28;20032;-66
2021/10/16 04:37:47;;;;;;;17.55;6.57;;;;;;;;;;5049109;28;20021;-66
2021/10/16 04:42:40;;;;;;;13.93;7.05;;;;;;;;;;5050399;28;20040;-66
2021/10/16 04:45:07;;;;;;;14.43;7.32;;;;;;;;;;5050602;28;20519;-68
2021/10/16 04:47:33;;;;;;;21.45;8.07;;;;;;;;;;5050660;28;20021;-65
2021/10/16 04:49:59;;;;;;;16.92;8.10;;;;;;;;;;5050689;28;20025;-65
2021/10/16 04:52:25;;;;;;;12.73;6.43;;;;;;;;;;5048706;28;20408;-65
2021/10/16 04:54:51;;;;;;;15.98;7.18;;;;;;;;;;5049907;28;20033;-65
2021/10/16 04:57:17;;;;;;;12.25;5.80;;;;;;;;;;5049062;28;20036;-65
2021/10/16 04:59:43;;;;;;;16.58;6.43;;;;;;;;;;5050000;28;20028;-65
2021/10/16 05:02:09;;;;;;;14.80;6.35;;;;;;;;;;5051346;28;20025;-65
2021/10/16 05:04:35;;;;;;;16.92;7.63;;;;;;;;;;5049692;28;20029;-65
2021/10/16 05:07:01;;;;;;;16.17;8.00;;;;;;;;;;5050133;28;20045;-72
2021/10/16 05:09:27;;;;;;;15.20;7.05;;;;;;;;;;5049019;28;20025;-71
2021/10/16 05:11:53;;;;;;;18.75;8.85;;;;;;;;;;5049036;28;20516;-70
2021/10/16 05:14:19;;;;;;;24.17;10.43;;;;;;;;;;5047562;28;20017;-70
2021/10/16 05:16:45;;;;;;;16.00;8.50;;;;;;;;;;5049082;28;20369;-69
2021/10/16 05:19:11;;;;;;;16.98;6.85;;;;;;;;;;5049052;28;20033;-67
2021/10/16 05:21:37;;;;;;;17.88;6.78;;;;;;;;;;5048996;28;20127;-67
2021/10/16 05:24:04;;;;;;;28.33;14.68;;;;;;;;;;5047675;28;20041;-68
2021/10/16 05:26:30;;;;;;;29.83;13.13;;;;;;;;;;5048700;28;20052;-68
2021/10/16 05:28:55;;;;;;;25.35;12.95;;;;;;;;;;5049896;28;20064;-65
2021/10/16 05:31:22;;;;;;;29.17;10.27;;;;;;;;;;5048853;28;20049;-65
2021/10/16 05:33:49;;;;;;;22.58;10.02;;;;;;;;;;5048758;28;20371;-67
2021/10/16 05:36:16;;;;;;;29.00;13.27;;;;;;;;;;5048651;28;20029;-68
2021/10/16 05:38:42;;;;;;;22.42;9.93;;;;;;;;;;5046693;28;20036;-65
2021/10/16 05:41:08;;;;;;;15.25;7.88;;;;;;;;;;5050281;28;20032;-66
2021/10/16 05:43:34;;;;;;;15.40;6.90;;;;;;;;;;5048205;28;20665;-65
2021/10/16 05:46:01;;;;;;;27.92;13.20;;;;;;;;;;5044669;28;20166;-65
2021/10/16 05:48:29;;;;;;;37.13;17.45;;;;;;;;;;5047337;28;20491;-65
2021/10/16 05:50:55;;;;;;;26.80;13.23;;;;;;;;;;5047947;28;20068;-65
2021/10/16 05:53:21;;;;;;;25.35;12.68;;;;;;;;;;5050363;28;20477;-64
2021/10/16 05:55:47;;;;;;;22.52;10.98;;;;;;;;;;5047594;28;20025;-65
2021/10/16 05:58:13;;;;;;;27.80;12.23;;;;;;;;;;5047236;28;20025;-66
2021/10/16 06:00:39;;;;;;;25.75;11.15;;;;;;;;;;5045740;28;20345;-64
2021/10/16 06:03:05;;;;;;;19.67;10.80;;;;;;;;;;5036416;28;20107;-67
2021/10/16 06:05:31;;;;;;;28.10;13.57;;;;;;;;;;5049534;28;20394;-67
2021/10/16 06:07:57;;;;;;;27.40;14.38;;;;;;;;;;5048837;28;20104;-67
2021/10/16 06:10:23;;;;;;;25.23;13.15;;;;;;;;;;5044704;28;20124;-66
2021/10/16 06:12:49;;;;;;;25.70;12.80;;;;;;;;;;5050212;28;20039;-67
2021/10/16 06:15:15;;;;;;;22.40;10.82;;;;;;;;;;5047065;28;20029;-67
2021/10/16 06:17:41;;;;;;;21.70;9.85;;;;;;;;;;5046961;28;20095;-69
2021/10/16 06:20:07;;;;;;;20.77;9.35;;;;;;;;;;5048704;28;20033;-67
2021/10/16 06:22:33;;;;;;;16.42;8.50;;;;;;;;;;5051834;28;20064;-66
2021/10/16 06:24:59;;;;;;;19.90;8.85;;;;;;;;;;5048841;28;20036;-67
2021/10/16 06:27:26;;;;;;;17.75;9.00;;;;;;;;;;5050391;28;20396;-65
2021/10/16 06:29:52;;;;;;;20.00;9.97;;;;;;;;;;5051261;28;20120;-64
2021/10/16 06:32:18;;;;;;;19.42;9.50;;;;;;;;;;5063296;28;20048;-71
2021/10/16 06:34:44;;;;;;;23.02;10.00;;;;;;;;;;5050474;28;20057;-68
2021/10/16 06:37:10;;;;;;;21.45;9.63;;;;;;;;;;5050726;28;20069;-68
2021/10/16 06:39:36;;;;;;;35.70;15.13;;;;;;;;;;5051720;28;20048;-68
2021/10/16 06:42:02;;;;;;;19.10;9.85;;;;;;;;;;5051713;28;20025;-65
2021/10/16 06:44:29;;;;;;;19.67;9.60;;;;;;;;;;5053096;28;20105;-65
2021/10/16 06:46:55;;;;;;;19.10;9.18;;;;;;;;;;5051523;28;20538;-66
2021/10/16 06:49:21;;;;;;;19.77;9.18;;;;;;;;;;5049848;28;20029;-65
2021/10/16 06:51:47;;;;;;;16.40;8.10;;;;;;;;;;5049470;28;20071;-66
2021/10/16 06:54:13;;;;;;;21.27;9.60;;;;;;;;;;5048699;28;20025;-67
2021/10/16 06:56:39;;;;;;;18.08;7.90;;;;;;;;;;5049387;28;20071;-67
2021/10/16 06:59:05;;;;;;;21.85;7.28;;;;;;;;;;5052602;28;20025;-66
2021/10/16 07:01:31;;;;;;;18.63;8.85;;;;;;;;;;5050714;28;20309;-66
2021/10/16 07:03:57;;;;;;;20.13;10.05;;;;;;;;;;5051212;28;20029;-66
2021/10/16 07:06:23;;;;;;;46.60;10.02;;;;;;;;;;5050738;28;20036;-67
2021/10/16 07:08:49;;;;;;;17.27;8.68;;;;;;;;;;5049787;28;20031;-67
2021/10/16 07:11:15;;;;;;;23.92;10.68;;;;;;;;;;5053751;28;20472;-67
2021/10/16 07:13:41;;;;;;;14.55;6.53;;;;;;;;;;5050399;28;20144;-67
2021/10/16 07:16:07;;;;;;;14.90;8.40;;;;;;;;;;5050596;28;20120;-67
2021/10/16 07:18:33;;;;;;;16.73;8.38;;;;;;;;;;5050550;28;20029;-67
2021/10/16 07:20:59;;;;;;;16.15;7.43;;;;;;;;;;5050810;28;20436;-67
2021/10/16 07:23:28;;;;;;;15.93;8.35;;;;;;;;;;5052649;28;20100;-67
2021/10/16 07:25:54;;;;;;;16.48;8.32;;;;;;;;;;5053521;28;20473;-67
2021/10/16 07:28:21;;;;;;;16.13;9.55;;;;;;;;;;5050763;28;20057;-67
2021/10/16 07:30:47;;;;;;;12.55;6.38;;;;;;;;;;5048970;28;20049;-68
2021/10/16 07:33:13;;;;;;;10.85;6.13;;;;;;;;;;5050546;28;20023;-67
2021/10/16 07:35:40;;;;;;;12.65;6.68;;;;;;;;;;5051650;28;20025;-67
2021/10/16 07:38:06;;;;;;;11.43;5.75;;;;;;;;;;5052955;28;20025;-67
2021/10/16 07:40:32;;;;;;;10.68;7.20;;;;;;;;;;5050510;28;20021;-66
2021/10/16 07:42:58;;;;;;;8.23;5.47;;;;;;;;;;5050527;28;20035;-67
2021/10/16 07:45:24;;;;;;;9.93;5.10;;;;;;;;;;5049536;28;20511;-67
2021/10/16 07:47:50;;;;;;;10.35;5.45;;;;;;;;;;5050679;28;20389;-67
2021/10/16 07:50:16;;;;;;;8.95;4.10;;;;;;;;;;5052531;28;20458;-67
2021/10/16 07:52:42;;;;;;;6.93;3.58;;;;;;;;;;5049821;28;20415;-66
2021/10/16 07:55:08;;;;;;;7.60;3.50;;;;;;;;;;5049891;28;20106;-66
2021/10/16 07:57:34;;;;;;;8.25;3.80;;;;;;;;;;5049712;28;20032;-66
2021/10/16 08:00:00;;;;;;;7.85;4.00;;;;;;;;;;5049887;28;20037;-67
2021/10/16 08:02:26;;;;;;;9.60;4.68;;;;;;;;;;5052262;28;20067;-66
2021/10/16 08:04:52;;;;;;;7.70;4.60;;;;;;;;;;5052582;28;20412;-66
2021/10/16 08:07:19;;;;;;;8.98;4.53;;;;;;;;;;5049625;28;20029;-66
2021/10/16 08:09:45;;;;;;;6.57;3.78;;;;;;;;;;5049392;28;20116;-65
2021/10/16 08:12:11;;;;;;;8.13;4.18;;;;;;;;;;5050150;28;20129;-66
2021/10/16 08:14:37;;;;;;;5.53;3.17;;;;;;;;;;5051591;28;20366;-68
2021/10/16 08:17:03;;;;;;;8.18;3.67;;;;;;;;;;5051168;28;20028;-66
2021/10/16 08:19:29;;;;;;;6.18;3.30;;;;;;;;;;5049947;28;20082;-66
2021/10/16 08:21:55;;;;;;;5.22;2.92;;;;;;;;;;5049609;28;20384;-69
2021/10/16 08:24:21;;;;;;;7.07;3.40;;;;;;;;;;5049368;28;20051;-68
2021/10/16 08:26:47;;;;;;;6.07;3.45;;;;;;;;;;5050096;28;20469;-69
2021/10/16 08:29:13;;;;;;;6.50;3.60;;;;;;;;;;5052848;28;20049;-68
2021/10/16 08:31:39;;;;;;;8.30;3.60;;;;;;;;;;5048742;28;20077;-68
2021/10/16 08:34:05;;;;;;;7.25;3.55;;;;;;;;;;5049096;28;20068;-68
2021/10/16 08:36:31;;;;;;;5.85;3.15;;;;;;;;;;5048884;28;20085;-68
2021/10/16 08:38:57;;;;;;;7.22;3.22;;;;;;;;;;5049422;28;20033;-68
2021/10/16 08:41:23;;;;;;;6.35;3.45;;;;;;;;;;5052141;28;20151;-68
2021/10/16 08:43:49;;;;;;;6.97;3.80;;;;;;;;;;5049944;28;20028;-69
2021/10/16 08:46:16;;;;;;;6.72;3.10;;;;;;;;;;5048274;28;20040;-69
2021/10/16 08:48:42;;;;;;;6.50;3.10;;;;;;;;;;5049265;28;20122;-68
2021/10/16 08:51:10;;;;;;;6.18;2.92;;;;;;;;;;5048353;28;20052;-69
2021/10/16 08:53:36;;;;;;;5.97;3.30;;;;;;;;;;5051064;28;20052;-69
2021/10/16 08:56:05;;;;;;;5.72;2.88;;;;;;;;;;5050697;28;20025;-68
2021/10/16 08:58:32;;;;;;;6.85;3.03;;;;;;;;;;5048776;28;20024;-67
2021/10/16 09:01:00;;;;;;;5.88;2.80;;;;;;;;;;5050195;28;20021;-68
2021/10/16 09:03:27;;;;;;;6.30;3.10;;;;;;;;;;5048115;28;20033;-68
2021/10/16 09:06:05;;;;;;;7.70;3.47;;;;;;;;;;5048697;28;20112;-68
2021/10/16 09:08:35;;;;;;;7.18;3.00;;;;;;;;;;5051244;28;20074;-68
2021/10/16 09:11:10;;;;;;;4.72;2.55;;;;;;;;;;5050465;28;20024;-68
2021/10/16 09:13:42;;;;;;;10.35;2.58;;;;;;;;;;5048452;28;20032;-68
2021/10/16 09:16:17;;;;;;;6.43;2.38;;;;;;;;;;5047979;28;20048;-68
2021/10/16 09:18:50;;;;;;;5.07;2.10;;;;;;;;;;5048655;28;20040;-68
2021/10/16 09:21:16;;;;;;;4.32;2.38;;;;;;;;;;5048402;28;20392;-68
2021/10/16 09:23:42;;;;;;;5.47;2.20;;;;;;;;;;5049444;28;20031;-68
2021/10/16 09:26:09;;;;;;;4.97;2.42;;;;;;;;;;5051289;28;20021;-68
2021/10/16 09:28:37;;;;;;;6.03;2.75;;;;;;;;;;5048448;28;20025;-69
2021/10/16 09:31:12;;;;;;;4.82;2.40;;;;;;;;;;5047970;28;20489;-69
2021/10/16 09:33:45;;;;;;;5.90;2.75;;;;;;;;;;5048109;28;20033;-69
2021/10/16 09:36:22;;;;;;;6.15;2.50;;;;;;;;;;5048565;28;20391;-68
2021/10/16 09:38:48;;;;;;;6.05;2.95;;;;;;;;;;5049969;28;20026;-68
2021/10/16 09:41:24;;;;;;;6.30;3.00;;;;;;;;;;5051728;28;20025;-69
2021/10/16 09:43:50;;;;;;;6.82;2.60;;;;;;;;;;5048921;28;20031;-69
2021/10/16 09:46:17;;;;;;;7.20;2.85;;;;;;;;;;5048492;28;20025;-68
2021/10/16 09:48:45;;;;;;;6.87;2.77;;;;;;;;;;5047298;28;20179;-68
2021/10/16 09:51:14;;;;;;;6.35;2.20;;;;;;;;;;5048291;28;20106;-68
2021/10/16 09:53:40;;;;;;;4.68;2.20;;;;;;;;;;5049109;28;20033;-68
2021/10/16 09:56:07;;;;;;;4.25;2.17;;;;;;;;;;5050062;28;20032;-69
2021/10/16 09:58:33;;;;;;;5.68;2.35;;;;;;;;;;5048075;28;20124;-68
2021/10/16 10:00:59;;;;;;;4.20;2.35;;;;;;;;;;5048300;28;20040;-68
2021/10/16 10:03:25;;;;;;;6.22;2.33;;;;;;;;;;5048402;28;20021;-68
2021/10/16 10:05:55;;;;;;;5.57;2.28;;;;;;;;;;5048034;28;20025;-68
2021/10/16 10:08:21;;;;;;;5.55;2.78;;;;;;;;;;5051046;28;20473;-69
2021/10/16 10:10:48;;;;;;;6.05;2.97;;;;;;;;;;5050000;28;20036;-69
2021/10/16 10:13:14;;;;;;;6.20;2.47;;;;;;;;;;5047407;28;20025;-69
2021/10/16 10:15:40;;;;;;;5.13;2.50;;;;;;;;;;5048201;28;20099;-68
2021/10/16 10:20:53;;;;;;;8.80;3.22;;;;;;;;;;5032518;28;20182;-68
2021/10/16 10:23:22;;;;;;;7.55;3.28;;;;;;;;;;5051308;28;20033;-68
2021/10/16 10:25:48;;;;;;;6.43;2.92;;;;;;;;;;5048731;28;20025;-68
2021/10/16 10:28:15;;;;;;;5.68;2.70;;;;;;;;;;5047877;28;20043;-68
2021/10/16 10:30:45;;;;;;;6.43;3.05;;;;;;;;;;5047098;28;20052;-67
2021/10/16 10:33:20;;;;;;;7.97;3.40;;;;;;;;;;5047780;28;20543;-68
2021/10/16 10:35:58;;;;;;;8.13;3.58;;;;;;;;;;5048698;28;20057;-68
2021/10/16 10:38:34;;;;;;;7.95;3.35;;;;;;;;;;5047173;28;20029;-68
2021/10/16 10:41:19;;;;;;;7.95;3.28;;;;;;;;;;5049109;28;20033;-68
2021/10/16 10:43:45;;;;;;;7.45;3.33;;;;;;;;;;5048201;28;20486;-70
2021/10/16 10:46:12;;;;;;;8.57;3.22;;;;;;;;;;5047726;28;20032;-68
2021/10/16 10:48:46;;;;;;;7.85;3.42;;;;;;;;;;5046061;28;20091;-68
2021/10/16 10:51:32;;;;;;;8.63;3.88;;;;;;;;;;5046351;28;20495;-68
2021/10/16 10:54:18;;;;;;;9.23;3.80;;;;;;;;;;5033314;28;20063;-69
2021/10/16 10:56:46;;;;;;;7.05;3.60;;;;;;;;;;5047453;28;20037;-69
2021/10/16 10:59:15;;;;;;;9.18;4.10;;;;;;;;;;5050323;28;20060;-69
2021/10/16 11:01:44;;;;;;;9.23;4.10;;;;;;;;;;5047437;28;20021;-68
2021/10/16 11:04:11;;;;;;;12.00;4.43;;;;;;;;;;5047580;28;20025;-68
2021/10/16 11:06:37;;;;;;;7.50;4.20;;;;;;;;;;5048993;28;20025;-68
2021/10/16 11:09:18;;;;;;;10.65;4.50;;;;;;;;;;5050199;28;20108;-68
2021/10/16 11:11:45;;;;;;;13.48;4.60;;;;;;;;;;5051698;28;20516;-68
2021/10/16 11:14:11;;;;;;;14.70;5.60;;;;;;;;;;5054268;28;20032;-67
2021/10/16 11:16:52;;;;;;;13.43;6.55;;;;;;;;;;5050929;28;20037;-67
2021/10/16 11:19:18;;;;;;;10.07;5.63;;;;;;;;;;5050176;28;20035;-67
2021/10/16 11:21:50;;;;;;;12.15;6.28;;;;;;;;;;5050833;28;20412;-67
2021/10/16 11:24:16;;;;;;;9.80;5.35;;;;;;;;;;5050794;28;20108;-67
2021/10/16 11:26:50;;;;;;;11.40;5.43;;;;;;;;;;5051488;28;20033;-67
2021/10/16 11:29:28;;;;;;;12.63;5.60;;;;;;;;;;5054498;28;20033;-67
2021/10/16 11:32:12;;;;;;;13.43;5.85;;;;;;;;;;5053086;28;20055;-67
2021/10/16 11:34:38;;;;;;;12.48;5.68;;;;;;;;;;5050259;28;20017;-67
2021/10/16 11:37:04;;;;;;;15.60;6.22;;;;;;;;;;5051320;28;20124;-67
2021/10/16 11:39:30;;;;;;;13.02;6.03;;;;;;;;;;5050230;28;20032;-69
2021/10/16 11:41:57;;;;;;;14.32;6.22;;;;;;;;;;5050582;28;20034;-69
2021/10/16 11:44:23;;;;;;;13.93;6.00;;;;;;;;;;5053215;28;20048;-67
2021/10/16 11:47:04;;;;;;;12.73;5.60;;;;;;;;;;5050940;28;20090;-67
2021/10/16 11:49:30;;;;;;;11.95;5.80;;;;;;;;;;5049412;28;20027;-67
2021/10/16 11:51:56;;;;;;;16.15;6.25;;;;;;;;;;5049748;28;20036;-67
2021/10/16 11:54:22;;;;;;;14.13;6.32;;;;;;;;;;5049665;28;20029;-67
2021/10/16 11:56:58;;;;;;;9.70;4.88;;;;;;;;;;5034656;28;20052;-67
2021/10/16 11:59:24;;;;;;;12.65;5.85;;;;;;;;;;5049671;28;20040;-67
2021/10/16 12:01:51;;;;;;;11.10;5.47;;;;;;;;;;5050896;28;20021;-67
2021/10/16 12:04:17;;;;;;;16.88;5.57;;;;;;;;;;5049375;28;20025;-67
2021/10/16 12:06:43;;;;;;;14.63;5.53;;;;;;;;;;5049868;28;20027;-67
2021/10/16 12:09:12;;;;;;;11.35;4.97;;;;;;;;;;5049674;28;20525;-68
2021/10/16 12:11:39;;;;;;;9.82;4.95;;;;;;;;;;5051530;28;20033;-67
2021/10/16 12:14:09;;;;;;;11.38;5.60;;;;;;;;;;5051459;28;20109;-67
2021/10/16 12:16:40;;;;;;;11.00;5.50;;;;;;;;;;5049246;28;20118;-67
2021/10/16 12:19:11;;;;;;;12.02;5.30;;;;;;;;;;5049269;28;20021;-67
2021/10/16 12:21:38;;;;;;;10.05;5.10;;;;;;;;;;5049560;28;20033;-67
2021/10/16 12:24:22;;;;;;;12.73;4.23;;;;;;;;;;5049089;28;20036;-67
2021/10/16 12:26:50;;;;;;;11.45;4.60;;;;;;;;;;5033793;28;20305;-67
2021/10/16 12:29:29;;;;;;;8.33;4.30;;;;;;;;;;5052995;28;20032;-68
2021/10/16 12:31:55;;;;;;;7.28;3.92;;;;;;;;;;5051520;28;20059;-66
2021/10/16 12:34:23;;;;;;;10.40;4.75;;;;;;;;;;5048946;28;20104;-66
2021/10/16 12:36:56;;;;;;;10.40;3.67;;;;;;;;;;5048721;28;20037;-66
2021/10/16 12:39:25;;;;;;;10.80;4.65;;;;;;;;;;5049441;28;20475;-66
2021/10/16 12:41:51;;;;;;;9.43;4.30;;;;;;;;;;5033290;28;20031;-66
2021/10/16 12:44:17;;;;;;;10.38;4.50;;;;;;;;;;5053270;28;20071;-66
2021/10/16 12:46:44;;;;;;;12.68;4.45;;;;;;;;;;5048935;28;20025;-66
2021/10/16 12:49:25;;;;;;;9.40;3.90;;;;;;;;;;5048925;28;20457;-66
2021/10/16 12:51:51;;;;;;;11.55;4.10;;;;;;;;;;5048376;28;20029;-66
2021/10/16 12:54:29;;;;;;;12.05;4.57;;;;;;;;;;5049076;28;20474;-66
2021/10/16 12:56:54;;;;;;;;;;;;;;;;;;5034408;28;20032;-66
2021/10/16 12:59:20;;;;;;;10.18;4.40;;;;;;;;;;5052299;28;19909;-69
2021/10/16 13:01:46;;;;;;;10.90;4.60;;;;;;;;;;5050433;28;20052;-68
2021/10/16 13:04:12;;;;;;;10.38;4.50;;;;;;;;;;5047902;28;20028;-68
2021/10/16 13:06:38;;;;;;;9.68;4.30;;;;;;;;;;5048187;28;20388;-68
2021/10/16 13:09:04;;;;;;;9.40;4.60;;;;;;;;;;5048810;28;20052;-68
2021/10/16 13:11:30;;;;;;;11.35;4.30;;;;;;;;;;5050942;28;20041;-68
2021/10/16 13:13:56;;;;;;;10.02;4.45;;;;;;;;;;5049495;28;20033;-68
2021/10/16 13:16:22;;;;;;;9.18;4.78;;;;;;;;;;5048048;28;20087;-68
2021/10/16 13:18:48;;;;;;;11.27;4.75;;;;;;;;;;5047389;28;20025;-68
2021/10/16 13:21:14;;;;;;;14.88;5.38;;;;;;;;;;5048453;28;20029;-68
2021/10/16 13:23:40;;;;;;;9.85;3.97;;;;;;;;;;5050135;28;20473;-69
2021/10/16 13:26:06;;;;;;;11.40;4.40;;;;;;;;;;5050171;28;20087;-68
2021/10/16 13:28:32;;;;;;;12.45;5.00;;;;;;;;;;5047261;28;20096;-68
2021/10/16 13:30:58;;;;;;;12.35;5.28;;;;;;;;;;5047856;28;20071;-68
2021/10/16 13:33:24;;;;;;;11.68;5.63;;;;;;;;;;5048581;28;20029;-68
2021/10/16 13:35:50;;;;;;;16.63;6.43;;;;;;;;;;5048197;28;20017;-68
2021/10/16 13:38:16;;;;;;;15.63;6.13;;;;;;;;;;5051770;28;20025;-68
2021/10/16 13:40:43;;;;;;;17.42;5.90;;;;;;;;;;5048115;28;20464;-68
2021/10/16 13:43:09;;;;;;;12.98;5.32;;;;;;;;;;5047233;28;20077;-68
2021/10/16 13:45:35;;;;;;;10.52;5.80;;;;;;;;;;5047860;28;20109;-68
2021/10/16 13:48:01;;;;;;;11.70;5.45;;;;;;;;;;5048009;28;20374;-68
2021/10/16 13:50:27;;;;;;;16.90;5.53;;;;;;;;;;5050427;28;20025;-68
2021/10/16 13:52:55;;;;;;;18.48;5.35;;;;;;;;;;5050088;28;20527;-68
2021/10/16 13:55:22;;;;;;;14.65;5.85;;;;;;;;;;5047550;28;20092;-68
2021/10/16 13:57:48;;;;;;;21.17;5.80;;;;;;;;;;5047811;28;20028;-69
2021/10/16 14:00:14;;;;;;;15.75;6.65;;;;;;;;;;5047833;28;20098;-68
2021/10/16 14:02:40;;;;;;;35.20;15.82;;;;;;;;;;5049321;28;20112;-68
2021/10/16 14:05:06;;;;;;;15.15;8.20;;;;;;;;;;5049520;28;20097;-68
2021/10/16 14:07:32;;;;;;;25.70;13.57;;;;;;;;;;5047375;28;20021;-68
2021/10/16 14:09:58;;;;;;;15.60;9.05;;;;;;;;;;5047786;28;20083;-67
2021/10/16 14:12:24;;;;;;;17.65;7.43;;;;;;;;;;5048028;28;20047;-68
2021/10/16 14:14:53;;;;;;;13.90;5.70;;;;;;;;;;5047846;28;20028;-68
2021/10/16 14:17:19;;;;;;;17.38;5.95;;;;;;;;;;5047476;28;20028;-67
2021/10/16 14:19:45;;;;;;;27.63;11.60;;;;;;;;;;5047323;28;20021;-68
2021/10/16 14:22:11;;;;;;;28.45;14.35;;;;;;;;;;5047344;28;20507;-68
2021/10/16 14:24:37;;;;;;;33.78;10.98;;;;;;;;;;5047736;28;20025;-68
2021/10/16 14:27:03;;;;;;;28.58;12.23;;;;;;;;;;5047791;28;20029;-67
2021/10/16 14:29:31;;;;;;;36.40;14.55;;;;;;;;;;5049795;28;20021;-68
2021/10/16 14:31:57;;;;;;;30.48;10.68;;;;;;;;;;5048474;28;20061;-69
2021/10/16 14:34:23;;;;;;;21.45;9.73;;;;;;;;;;5046380;28;20044;-67